Friday Harbor, Washington
Current Conditions -  °F | °C
As of 7:53 PM on Monday 22 Dec 2014 (Local Time) from KFHR Reporting Station
Overcast Overcast  
Wind Chill:   Ceiling: 11000
Heat Index:   Visibility: 10mi
Dew Point:   Wind: 0mph
Humidity: 90%   Direction: NA
Pressure: 30.37"   Gusts: NA
Location:  48.53°N, 123.02°W
Report Text: KFHR 230353Z AUTO 00000KT 10SM OVC110 07/06 A3037 RMK AO2 SLP284 T00720056
Loading
Personal Weather Stations






























Interactive Weather Map New forecast layout! Learn more

10-Day Weather Forecast

Advertisements
Track Severe Weather on mobile